createdAt,value
2022-12-18T00:01:33.996Z,-6.20
2022-12-18T00:04:03.319Z,-6.00
2022-12-18T00:06:31.853Z,-6.10
2022-12-18T00:09:01.159Z,-6.10
2022-12-18T00:11:31.801Z,-6.30
2022-12-18T00:14:01.922Z,-6.50
2022-12-18T00:16:33.750Z,-6.90
2022-12-18T00:19:02.763Z,-7.10
2022-12-18T00:21:31.733Z,-7.30
2022-12-18T00:24:00.188Z,-7.30
2022-12-18T00:26:31.582Z,-7.20
2022-12-18T00:29:01.397Z,-7.20
2022-12-18T00:31:30.579Z,-7.20
2022-12-18T00:33:59.460Z,-7.30
2022-12-18T00:36:29.642Z,-7.50
2022-12-18T00:38:58.960Z,-7.60
2022-12-18T00:41:45.286Z,-7.80
2022-12-18T00:44:17.057Z,-8.00
2022-12-18T00:46:46.489Z,-8.20
2022-12-18T00:49:14.781Z,-8.50
2022-12-18T00:51:42.873Z,-8.60
2022-12-18T00:54:10.919Z,-8.90
2022-12-18T00:56:45.785Z,-9.30
2022-12-18T00:59:18.717Z,-9.30
2022-12-18T01:01:48.229Z,-9.60
2022-12-18T01:04:17.154Z,-9.80
2022-12-18T01:06:45.074Z,-9.90
2022-12-18T01:09:13.065Z,-10.00
2022-12-18T01:11:41.381Z,-10.00
2022-12-18T01:14:09.546Z,-10.20
2022-12-18T01:16:39.291Z,-10.20
2022-12-18T01:19:07.726Z,-10.10
2022-12-18T01:21:35.910Z,-10.00
2022-12-18T01:24:03.932Z,-10.00
2022-12-18T01:26:31.924Z,-10.20
2022-12-18T01:29:00.331Z,-10.10
2022-12-18T01:31:30.423Z,-10.00
2022-12-18T01:34:02.220Z,-10.00
2022-12-18T01:36:32.065Z,-10.20
2022-12-18T01:39:01.887Z,-10.20
2022-12-18T01:41:52.603Z,-10.10
2022-12-18T01:45:03.422Z,-10.10
2022-12-18T01:47:36.636Z,-10.30
2022-12-18T01:50:09.839Z,-10.40
2022-12-18T01:52:39.625Z,-10.30
2022-12-18T01:55:09.055Z,-10.60
2022-12-18T01:57:37.730Z,-10.60
2022-12-18T02:00:09.415Z,-10.70
2022-12-18T02:02:37.719Z,-10.70
2022-12-18T02:05:08.490Z,-10.70
2022-12-18T02:07:44.590Z,-10.70
2022-12-18T02:10:18.754Z,-10.80
2022-12-18T02:12:51.307Z,-10.80
2022-12-18T02:15:27.454Z,-10.90
2022-12-18T02:17:58.606Z,-11.00
2022-12-18T02:20:34.912Z,-11.20
2022-12-18T02:23:24.343Z,-11.30
2022-12-18T02:26:21.230Z,-11.70
2022-12-18T02:28:55.832Z,-11.80
2022-12-18T02:31:27.237Z,-11.70
2022-12-18T02:33:58.466Z,-11.70
2022-12-18T02:36:28.719Z,-11.70
2022-12-18T02:38:58.360Z,-11.90
2022-12-18T02:41:28.330Z,-11.90
2022-12-18T02:44:00.518Z,-12.00
2022-12-18T02:46:32.929Z,-12.10
2022-12-18T02:49:08.825Z,-12.10
2022-12-18T02:51:46.928Z,-12.20
2022-12-18T02:54:23.482Z,-12.10
2022-12-18T02:56:56.670Z,-12.40
2022-12-18T02:59:33.122Z,-12.20
2022-12-18T03:02:07.315Z,-12.10
2022-12-18T03:04:44.702Z,-12.20
2022-12-18T03:07:18.817Z,-12.60
2022-12-18T03:09:51.256Z,-13.00
2022-12-18T03:12:26.274Z,-13.00
2022-12-18T03:14:59.734Z,-13.00
2022-12-18T03:17:30.286Z,-12.80
2022-12-18T03:20:03.753Z,-12.70
2022-12-18T03:22:35.244Z,-12.90
2022-12-18T03:25:06.425Z,-12.70
2022-12-18T03:27:38.129Z,-12.90
2022-12-18T03:30:09.205Z,-12.90
2022-12-18T03:32:43.218Z,-12.90
2022-12-18T03:35:15.128Z,-13.20
2022-12-18T03:37:43.069Z,-13.40
2022-12-18T03:40:11.755Z,-13.20
2022-12-18T03:42:48.770Z,-13.20
2022-12-18T03:45:23.179Z,-13.20
2022-12-18T03:48:01.201Z,-13.10
2022-12-18T03:50:37.864Z,-13.10
2022-12-18T03:53:16.347Z,-13.40
2022-12-18T03:55:45.133Z,-13.30
2022-12-18T03:58:18.402Z,-13.30
2022-12-18T04:00:47.066Z,-13.50
2022-12-18T04:03:16.741Z,-13.70
2022-12-18T04:05:45.998Z,-13.90
2022-12-18T04:08:15.192Z,-13.90
2022-12-18T04:10:43.130Z,-13.80
2022-12-18T04:13:11.565Z,-13.70
2022-12-18T04:15:41.877Z,-13.70
2022-12-18T04:18:10.209Z,-13.80
2022-12-18T04:20:38.171Z,-13.50
2022-12-18T04:23:06.144Z,-13.50
2022-12-18T04:25:34.069Z,-13.50
2022-12-18T04:28:01.966Z,-13.60
2022-12-18T04:30:29.956Z,-13.40
2022-12-18T04:32:59.238Z,-13.30
2022-12-18T04:35:27.237Z,-13.30
2022-12-18T04:37:55.260Z,-13.30
2022-12-18T04:40:23.297Z,-13.40
2022-12-18T04:42:51.218Z,-13.30
2022-12-18T04:45:19.278Z,-13.50
2022-12-18T04:47:47.285Z,-13.60
2022-12-18T04:50:16.775Z,-13.40
2022-12-18T04:52:44.725Z,-13.40
2022-12-18T04:55:12.642Z,-13.70
2022-12-18T04:57:40.558Z,-13.80
2022-12-18T05:00:10.373Z,-13.80
2022-12-18T05:02:38.378Z,-14.10
2022-12-18T05:05:07.433Z,-14.10
2022-12-18T05:07:36.673Z,-14.00
2022-12-18T05:10:05.138Z,-14.00
2022-12-18T05:12:34.406Z,-13.90
2022-12-18T05:15:05.990Z,-13.80
2022-12-18T05:17:33.873Z,-13.90
2022-12-18T05:20:01.746Z,-13.90
2022-12-18T05:22:29.846Z,-13.80
2022-12-18T05:24:59.122Z,-13.70
2022-12-18T05:27:27.209Z,-13.70
2022-12-18T05:29:55.133Z,-13.80
2022-12-18T05:32:23.095Z,-13.80
2022-12-18T05:34:51.058Z,-13.80
2022-12-18T05:37:18.985Z,-14.00
2022-12-18T05:39:47.005Z,-14.00
2022-12-18T05:42:16.317Z,-14.20
2022-12-18T05:44:45.485Z,-14.20
2022-12-18T05:47:13.494Z,-14.40
2022-12-18T05:49:41.412Z,-14.30
2022-12-18T05:52:09.850Z,-14.20
2022-12-18T05:54:37.910Z,-14.30
2022-12-18T05:57:05.804Z,-14.20
2022-12-18T05:59:35.272Z,-14.10
2022-12-18T06:02:03.380Z,-14.00
2022-12-18T06:04:31.380Z,-13.70
2022-12-18T06:06:59.706Z,-13.50
2022-12-18T06:09:27.808Z,-13.40
2022-12-18T06:11:55.761Z,-13.30
2022-12-18T06:14:23.700Z,-13.20
2022-12-18T06:16:53.962Z,-13.20
2022-12-18T06:19:21.906Z,-13.40
2022-12-18T06:21:50.171Z,-13.50
2022-12-18T06:24:18.412Z,-13.40
2022-12-18T06:26:46.365Z,-13.30
2022-12-18T06:29:14.266Z,-13.40
2022-12-18T06:31:42.308Z,-13.50
2022-12-18T06:34:11.671Z,-13.40
2022-12-18T06:36:39.817Z,-13.20
2022-12-18T06:39:07.701Z,-13.10
2022-12-18T06:41:35.762Z,-13.20
2022-12-18T06:44:04.057Z,-13.40
2022-12-18T06:46:33.102Z,-13.30
2022-12-18T06:49:01.125Z,-13.20
2022-12-18T06:51:30.516Z,-13.20
2022-12-18T06:53:58.410Z,-13.30
2022-12-18T06:56:26.413Z,-13.30
2022-12-18T06:58:54.374Z,-13.40
2022-12-18T07:01:22.913Z,-13.40
2022-12-18T07:03:54.136Z,-13.30
2022-12-18T07:06:24.825Z,-13.30
2022-12-18T07:08:55.406Z,-13.10
2022-12-18T07:11:23.629Z,-13.10
2022-12-18T07:13:51.693Z,-13.00
2022-12-18T07:16:25.122Z,-13.00
2022-12-18T07:18:54.077Z,-12.80
2022-12-18T07:21:22.101Z,-12.80
2022-12-18T07:23:50.065Z,-12.80
2022-12-18T07:26:20.948Z,-12.80
2022-12-18T07:28:49.519Z,-12.80
2022-12-18T07:31:20.071Z,-12.70
2022-12-18T07:33:50.069Z,-12.60
2022-12-18T07:36:18.936Z,-12.40
2022-12-18T07:38:49.419Z,-12.40
2022-12-18T07:41:19.570Z,-12.20
2022-12-18T07:43:47.886Z,-12.20
2022-12-18T07:46:17.096Z,-12.10
2022-12-18T07:48:49.247Z,-12.00
2022-12-18T07:51:18.642Z,-12.20
2022-12-18T07:53:46.906Z,-12.00
2022-12-18T07:56:30.541Z,-11.80
2022-12-18T07:58:59.781Z,-11.70
2022-12-18T08:01:28.687Z,-11.90
2022-12-18T08:03:56.805Z,-11.70
2022-12-18T08:06:25.013Z,-11.80
2022-12-18T08:08:54.317Z,-11.80
2022-12-18T08:11:24.642Z,-11.50
2022-12-18T08:13:52.668Z,-11.70
2022-12-18T08:16:21.364Z,-11.90
2022-12-18T08:18:50.464Z,-12.00
2022-12-18T08:21:21.885Z,-11.50
2022-12-18T08:23:51.625Z,-11.50
2022-12-18T08:26:20.851Z,-11.50
2022-12-18T08:28:51.247Z,-11.50
2022-12-18T08:31:19.955Z,-11.20
2022-12-18T08:33:51.249Z,-11.10
2022-12-18T08:36:20.021Z,-11.20
2022-12-18T08:38:48.291Z,-11.10
2022-12-18T08:41:17.887Z,-10.90
2022-12-18T08:44:03.405Z,-10.80
2022-12-18T08:46:37.608Z,-10.80
2022-12-18T08:49:06.030Z,-10.80
2022-12-18T08:51:34.265Z,-10.70
2022-12-18T08:54:02.397Z,-10.60
2022-12-18T08:56:31.914Z,-10.60
2022-12-18T08:58:59.975Z,-10.80
2022-12-18T09:01:28.076Z,-10.60
2022-12-18T09:03:57.770Z,-10.40
2022-12-18T09:06:27.433Z,-10.40
2022-12-18T09:08:55.378Z,-10.60
2022-12-18T09:11:25.030Z,-10.50
2022-12-18T09:13:53.399Z,-10.50
2022-12-18T09:16:22.530Z,-10.50
2022-12-18T09:18:54.557Z,-10.50
2022-12-18T09:21:23.909Z,-10.40
2022-12-18T09:23:52.710Z,-10.30
2022-12-18T09:26:20.846Z,-9.80
2022-12-18T09:28:48.999Z,-9.70
2022-12-18T09:31:17.436Z,-9.60
2022-12-18T09:33:46.033Z,-9.60
2022-12-18T09:36:16.258Z,-9.70
2022-12-18T09:38:45.693Z,-9.60
2022-12-18T09:41:32.657Z,-9.50
2022-12-18T09:44:04.865Z,-9.50
2022-12-18T09:46:36.158Z,-9.40
2022-12-18T09:49:08.452Z,-9.30
2022-12-18T09:51:42.028Z,-9.20
2022-12-18T09:54:18.334Z,-9.10
2022-12-18T09:56:46.803Z,-9.00
2022-12-18T09:59:23.351Z,-8.80
2022-12-18T10:01:52.375Z,-8.80
2022-12-18T10:04:20.663Z,-8.80
2022-12-18T10:06:55.021Z,-8.70
2022-12-18T10:09:30.442Z,-8.50
2022-12-18T10:12:09.520Z,-8.50
2022-12-18T10:14:44.136Z,-8.20
2022-12-18T10:17:22.813Z,-8.00
2022-12-18T10:19:56.800Z,-7.80
2022-12-18T10:22:36.910Z,-7.80
2022-12-18T10:25:17.576Z,-7.80
2022-12-18T10:27:45.769Z,-7.60
2022-12-18T10:30:16.537Z,-7.40
2022-12-18T10:32:44.920Z,-7.00
2022-12-18T10:35:19.915Z,-6.90
2022-12-18T10:38:09.128Z,-6.90
2022-12-18T10:40:51.954Z,-6.80
2022-12-18T10:43:24.288Z,-6.60
2022-12-18T10:46:02.565Z,-6.80
2022-12-18T10:48:31.794Z,-6.60
2022-12-18T10:51:15.345Z,-6.50
2022-12-18T10:53:44.691Z,-6.50
2022-12-18T10:56:14.350Z,-6.30
2022-12-18T10:58:42.685Z,-6.20
2022-12-18T11:01:13.270Z,-6.40
2022-12-18T11:03:43.191Z,-6.30
2022-12-18T11:06:12.885Z,-6.20
2022-12-18T11:08:41.862Z,-6.20
2022-12-18T11:11:21.273Z,-6.20
2022-12-18T11:14:00.750Z,-6.10
2022-12-18T11:16:29.672Z,-6.10
2022-12-18T11:19:12.761Z,-5.90
2022-12-18T11:21:42.490Z,-5.90
2022-12-18T11:24:21.330Z,-5.90
2022-12-18T11:26:56.337Z,-5.80
2022-12-18T11:29:36.171Z,-5.90
2022-12-18T11:32:36.754Z,-5.90
2022-12-18T11:35:19.252Z,-5.90
2022-12-18T11:37:52.538Z,-6.10
2022-12-18T11:40:28.578Z,-6.20
2022-12-18T11:43:04.724Z,-6.50
2022-12-18T11:45:37.921Z,-6.70
2022-12-18T11:48:14.805Z,-6.60
2022-12-18T11:50:52.574Z,-6.50
2022-12-18T11:53:21.651Z,-6.20
2022-12-18T11:56:06.971Z,-6.00
2022-12-18T11:58:47.230Z,-6.10
2022-12-18T12:01:30.852Z,-6.10
2022-12-18T12:04:13.218Z,-5.80
2022-12-18T12:06:52.007Z,-6.00
2022-12-18T12:09:30.295Z,-5.80
2022-12-18T12:12:11.501Z,-5.90
2022-12-18T12:14:50.121Z,-5.80
2022-12-18T12:17:27.463Z,-5.80
2022-12-18T12:20:04.392Z,-5.70
2022-12-18T12:22:41.578Z,-6.00
2022-12-18T12:25:27.916Z,-6.10
2022-12-18T12:28:08.987Z,-6.00
2022-12-18T12:30:51.652Z,-5.90
2022-12-18T12:33:32.473Z,-5.80
2022-12-18T12:36:08.329Z,-5.80
2022-12-18T12:38:48.286Z,-5.80
2022-12-18T12:41:39.497Z,-5.90
2022-12-18T12:44:10.756Z,-5.80
2022-12-18T12:46:43.863Z,-5.90
2022-12-18T12:49:16.482Z,-5.80
2022-12-18T12:51:47.890Z,-5.70
2022-12-18T12:54:18.932Z,-5.90
2022-12-18T12:56:53.793Z,-6.20
2022-12-18T12:59:28.317Z,-6.30
2022-12-18T13:02:04.669Z,-6.40
2022-12-18T13:04:39.075Z,-6.20
2022-12-18T13:07:14.029Z,-6.30
2022-12-18T13:10:17.228Z,-6.30
2022-12-18T13:12:59.635Z,-6.40
2022-12-18T13:15:40.995Z,-6.20
2022-12-18T13:18:20.650Z,-6.20
2022-12-18T13:20:55.215Z,-6.20
2022-12-18T13:23:37.289Z,-6.20
2022-12-18T13:26:32.260Z,-6.20
2022-12-18T13:29:02.798Z,-6.30
2022-12-18T13:32:12.923Z,-6.60
2022-12-18T13:34:45.188Z,-6.60
2022-12-18T13:37:49.926Z,-6.40
2022-12-18T13:40:59.918Z,-6.40
2022-12-18T13:43:37.979Z,-6.50
2022-12-18T13:46:22.265Z,-6.60
2022-12-18T13:48:59.843Z,-6.60
2022-12-18T13:51:30.942Z,-6.60
2022-12-18T13:54:02.392Z,-6.60
2022-12-18T13:56:33.264Z,-6.60
2022-12-18T13:59:24.280Z,-6.70
2022-12-18T14:01:56.718Z,-6.70
2022-12-18T14:04:28.031Z,-6.70
2022-12-18T14:07:03.677Z,-6.60
2022-12-18T14:09:36.612Z,-6.80
2022-12-18T14:12:24.870Z,-6.80
2022-12-18T14:14:55.298Z,-6.70
2022-12-18T14:17:25.174Z,-7.20
2022-12-18T14:19:53.779Z,-7.40
2022-12-18T14:22:30.330Z,-7.30
2022-12-18T14:25:16.476Z,-7.20
2022-12-18T14:27:45.728Z,-7.00
2022-12-18T14:30:28.038Z,-7.10
2022-12-18T14:33:03.530Z,-7.00
2022-12-18T14:35:31.452Z,-7.00
2022-12-18T14:38:21.375Z,-7.10
2022-12-18T14:40:49.934Z,-7.10
2022-12-18T14:43:18.034Z,-7.10
2022-12-18T14:45:47.463Z,-7.20
2022-12-18T14:48:19.699Z,-7.30
2022-12-18T14:51:00.739Z,-7.30
2022-12-18T14:53:36.969Z,-7.30
2022-12-18T14:56:06.112Z,-7.30
2022-12-18T14:58:34.304Z,-7.20
2022-12-18T15:01:02.351Z,-7.20
2022-12-18T15:03:30.495Z,-7.10
2022-12-18T15:06:16.887Z,-7.20
2022-12-18T15:08:46.257Z,-7.20
2022-12-18T15:11:34.789Z,-7.30
2022-12-18T15:14:23.339Z,-7.40
2022-12-18T15:16:54.479Z,-7.40
2022-12-18T15:19:24.409Z,-7.60
2022-12-18T15:21:52.354Z,-7.90
2022-12-18T15:24:26.455Z,-7.80
2022-12-18T15:26:54.846Z,-7.80
2022-12-18T15:29:24.353Z,-7.70
2022-12-18T15:32:03.897Z,-7.70
2022-12-18T15:34:32.075Z,-7.50
2022-12-18T15:36:59.993Z,-7.40
2022-12-18T15:39:29.258Z,-7.50
2022-12-18T15:42:14.762Z,-7.50
2022-12-18T15:44:42.676Z,-7.60
2022-12-18T15:47:14.201Z,-7.50
2022-12-18T15:49:42.158Z,-7.40
2022-12-18T15:52:14.327Z,-7.40
2022-12-18T15:55:01.128Z,-7.60
2022-12-18T15:57:29.120Z,-7.70
2022-12-18T15:59:59.207Z,-7.70
2022-12-18T16:02:28.979Z,-7.60
2022-12-18T16:04:57.411Z,-7.60
2022-12-18T16:07:27.351Z,-7.90
2022-12-18T16:10:00.364Z,-8.30
2022-12-18T16:12:30.815Z,-8.40
2022-12-18T16:14:58.983Z,-8.60
2022-12-18T16:17:26.878Z,-8.60
2022-12-18T16:19:55.434Z,-8.40
2022-12-18T16:22:25.902Z,-8.40
2022-12-18T16:24:55.257Z,-8.10
2022-12-18T16:27:25.444Z,-8.00
2022-12-18T16:29:53.656Z,-8.10
2022-12-18T16:32:24.764Z,-7.90
2022-12-18T16:34:53.159Z,-7.70
2022-12-18T16:37:21.120Z,-7.60
2022-12-18T16:39:49.040Z,-7.60
2022-12-18T16:42:20.543Z,-7.90
2022-12-18T16:44:51.229Z,-8.30
2022-12-18T16:47:20.323Z,-8.20
2022-12-18T16:49:51.528Z,-8.20
2022-12-18T16:52:19.968Z,-8.20
2022-12-18T16:54:48.111Z,-8.00
2022-12-18T16:57:18.186Z,-7.80
2022-12-18T16:59:46.257Z,-7.70
2022-12-18T17:02:20.263Z,-7.80
2022-12-18T17:04:51.822Z,-7.80
2022-12-18T17:07:19.773Z,-7.90
2022-12-18T17:09:47.706Z,-7.90
2022-12-18T17:12:15.617Z,-8.10
2022-12-18T17:14:43.533Z,-8.70
2022-12-18T17:17:26.929Z,-8.90
2022-12-18T17:19:56.308Z,-9.00
2022-12-18T17:22:24.232Z,-8.70
2022-12-18T17:24:52.246Z,-8.90
2022-12-18T17:27:20.220Z,-8.50
2022-12-18T17:29:48.980Z,-8.20
2022-12-18T17:32:17.836Z,-8.30
2022-12-18T17:34:46.013Z,-8.30
2022-12-18T17:37:15.649Z,-8.40
2022-12-18T17:39:43.528Z,-8.70
2022-12-18T17:42:14.057Z,-8.50
2022-12-18T17:44:43.794Z,-8.70
2022-12-18T17:47:12.885Z,-8.40
2022-12-18T17:49:40.777Z,-8.60
2022-12-18T17:52:09.038Z,-8.70
2022-12-18T17:54:41.307Z,-8.40
2022-12-18T17:57:09.428Z,-8.00
2022-12-18T17:59:37.520Z,-7.80
2022-12-18T18:02:05.840Z,-7.60
2022-12-18T18:04:34.497Z,-7.50
2022-12-18T18:07:02.993Z,-7.50
2022-12-18T18:09:31.158Z,-7.60
2022-12-18T18:12:17.869Z,-7.40
2022-12-18T18:14:46.017Z,-7.30
2022-12-18T18:17:14.535Z,-7.30
2022-12-18T18:19:43.218Z,-7.20
2022-12-18T18:22:13.933Z,-7.10
2022-12-18T18:24:43.604Z,-7.20
2022-12-18T18:27:12.889Z,-7.10
2022-12-18T18:29:41.188Z,-7.20
2022-12-18T18:32:09.223Z,-7.20
2022-12-18T18:34:45.216Z,-7.20
2022-12-18T18:37:13.605Z,-7.10
2022-12-18T18:39:41.911Z,-7.00
2022-12-18T18:42:10.147Z,-6.90
2022-12-18T18:44:41.371Z,-7.00
2022-12-18T18:47:12.826Z,-6.90
2022-12-18T18:49:40.861Z,-6.90
2022-12-18T18:52:08.806Z,-6.80
2022-12-18T18:54:37.212Z,-6.80
2022-12-18T18:57:26.275Z,-6.70
2022-12-18T18:59:56.497Z,-6.70
2022-12-18T19:02:24.761Z,-6.70
2022-12-18T19:04:52.774Z,-6.70
2022-12-18T19:07:30.624Z,-6.70
2022-12-18T19:10:04.189Z,-6.80
2022-12-18T19:12:50.382Z,-6.80
2022-12-18T19:15:19.812Z,-6.80
2022-12-18T19:17:47.979Z,-6.90
2022-12-18T19:20:16.686Z,-6.70
2022-12-18T19:22:55.126Z,-6.70
2022-12-18T19:25:28.356Z,-6.60
2022-12-18T19:28:02.561Z,-6.60
2022-12-18T19:30:34.085Z,-6.60
2022-12-18T19:33:09.717Z,-6.60
2022-12-18T19:35:50.260Z,-6.50
2022-12-18T19:38:18.293Z,-6.50
2022-12-18T19:40:47.057Z,-6.40
2022-12-18T19:43:15.282Z,-6.40
2022-12-18T19:45:45.553Z,-6.50
2022-12-18T19:48:13.510Z,-6.50
2022-12-18T19:50:43.030Z,-6.50
2022-12-18T19:53:11.118Z,-6.70
2022-12-18T19:55:43.304Z,-6.70
2022-12-18T19:58:12.965Z,-6.60
2022-12-18T20:00:40.887Z,-6.70
2022-12-18T20:03:19.877Z,-6.60
2022-12-18T20:05:51.329Z,-6.50
2022-12-18T20:08:19.270Z,-6.40
2022-12-18T20:10:48.849Z,-6.40
2022-12-18T20:13:17.835Z,-6.40
2022-12-18T20:15:45.815Z,-6.40
2022-12-18T20:18:15.105Z,-6.40
2022-12-18T20:20:45.665Z,-6.40
2022-12-18T20:23:15.284Z,-6.40
2022-12-18T20:25:43.318Z,-6.30
2022-12-18T20:28:11.357Z,-6.30
2022-12-18T20:30:39.305Z,-6.30
2022-12-18T20:33:07.279Z,-6.30
2022-12-18T20:35:36.573Z,-6.30
2022-12-18T20:38:04.937Z,-6.20
2022-12-18T20:40:34.055Z,-6.20
2022-12-18T20:43:02.294Z,-6.20
2022-12-18T20:45:30.333Z,-6.20
2022-12-18T20:47:59.439Z,-6.10
2022-12-18T20:50:27.461Z,-6.10
2022-12-18T20:52:56.700Z,-6.10
2022-12-18T20:55:24.627Z,-6.10
2022-12-18T20:57:52.737Z,-6.20
2022-12-18T21:00:21.227Z,-6.20
2022-12-18T21:02:49.469Z,-6.20
2022-12-18T21:05:17.655Z,-6.30
2022-12-18T21:07:45.542Z,-6.30
2022-12-18T21:10:14.825Z,-6.40
2022-12-18T21:12:50.277Z,-6.40
2022-12-18T21:15:28.720Z,-6.30
2022-12-18T21:17:56.996Z,-6.30
2022-12-18T21:20:25.044Z,-6.20
2022-12-18T21:22:54.054Z,-6.10
2022-12-18T21:25:27.387Z,-6.10
2022-12-18T21:27:55.847Z,-6.20
2022-12-18T21:30:24.014Z,-6.10
2022-12-18T21:32:51.914Z,-6.10
2022-12-18T21:35:20.548Z,-6.10
2022-12-18T21:37:50.066Z,-6.20
2022-12-18T21:40:18.260Z,-6.20
2022-12-18T21:43:05.174Z,-6.10
2022-12-18T21:45:33.160Z,-6.10
2022-12-18T21:48:01.192Z,-6.10
2022-12-18T21:50:29.445Z,-6.00
2022-12-18T21:52:57.318Z,-6.00
2022-12-18T21:55:25.239Z,-5.90
2022-12-18T21:57:54.926Z,-5.90
2022-12-18T22:00:22.991Z,-5.90
2022-12-18T22:03:13.401Z,-6.00
2022-12-18T22:05:39.007Z,-6.00
2022-12-18T22:08:07.537Z,-5.90
2022-12-18T22:10:36.143Z,-5.90
2022-12-18T22:13:05.690Z,-5.90
2022-12-18T22:15:34.106Z,-5.90
2022-12-18T22:18:02.140Z,-6.00
2022-12-18T22:20:30.328Z,-6.00
2022-12-18T22:22:58.603Z,-6.00
2022-12-18T22:25:27.506Z,-6.00
2022-12-18T22:28:13.201Z,-5.90
2022-12-18T22:30:42.528Z,-5.80
2022-12-18T22:33:10.499Z,-5.90
2022-12-18T22:35:38.489Z,-5.90
2022-12-18T22:38:06.377Z,-5.90
2022-12-18T22:40:34.481Z,-5.80
2022-12-18T22:43:02.614Z,-5.80
2022-12-18T22:45:30.510Z,-5.80
2022-12-18T22:48:00.962Z,-5.80
2022-12-18T22:50:28.987Z,-5.80
2022-12-18T22:52:56.922Z,-5.70
2022-12-18T22:55:24.903Z,-5.80
2022-12-18T22:57:52.788Z,-5.80
2022-12-18T23:00:23.864Z,-5.90
2022-12-18T23:02:59.427Z,-5.80
2022-12-18T23:05:30.838Z,-5.70
2022-12-18T23:07:59.451Z,-5.70
2022-12-18T23:10:27.552Z,-5.60
2022-12-18T23:12:55.687Z,-5.60
2022-12-18T23:15:27.795Z,-5.60
2022-12-18T23:17:57.281Z,-5.60
2022-12-18T23:20:25.853Z,-5.70
2022-12-18T23:22:55.159Z,-5.70
2022-12-18T23:25:23.114Z,-5.60
2022-12-18T23:27:51.145Z,-5.60
2022-12-18T23:30:19.219Z,-5.50
2022-12-18T23:32:47.241Z,-5.50
2022-12-18T23:35:15.963Z,-5.50
2022-12-18T23:38:00.107Z,-5.50
2022-12-18T23:40:30.312Z,-5.50
2022-12-18T23:42:59.412Z,-5.50
2022-12-18T23:45:27.320Z,-5.40
2022-12-18T23:47:55.246Z,-5.50
2022-12-18T23:50:28.929Z,-5.50
2022-12-18T23:52:59.423Z,-5.50
2022-12-18T23:55:38.377Z,-5.50
2022-12-18T23:58:06.310Z,-5.50
